createdAt,value
2019-04-13T16:53:06.043Z,5.22
2019-04-13T16:54:06.170Z,5.22
2019-04-13T16:55:08.625Z,5.17
2019-04-13T16:56:05.160Z,5.17
2019-04-13T16:57:05.130Z,5.14
2019-04-13T16:58:05.403Z,5.13
2019-04-13T16:59:05.083Z,5.20
2019-04-13T17:00:05.951Z,5.07
2019-04-13T17:01:05.038Z,5.01
2019-04-13T17:02:05.011Z,4.95
2019-04-13T17:03:05.423Z,5.09
2019-04-13T17:04:05.149Z,5.05
2019-04-13T17:05:05.163Z,5.04
2019-04-13T17:06:04.940Z,4.99
2019-04-13T17:07:04.977Z,5.05
2019-04-13T17:08:05.582Z,4.99
2019-04-13T17:09:04.848Z,5.01
2019-04-13T17:10:04.820Z,5.01
2019-04-13T17:11:04.897Z,4.94
2019-04-13T17:12:17.206Z,4.92
2019-04-13T17:13:05.598Z,4.91
2019-04-13T17:14:04.723Z,4.94
2019-04-13T17:15:04.717Z,4.88
2019-04-13T17:16:04.993Z,4.84
2019-04-13T17:17:04.651Z,4.80
2019-04-13T17:18:05.713Z,4.77
2019-04-13T17:19:05.513Z,4.75
2019-04-13T17:20:05.674Z,4.76
2019-04-13T17:21:04.559Z,4.75
2019-04-13T17:22:05.359Z,4.70
2019-04-13T17:23:04.511Z,4.69
2019-04-13T17:24:04.993Z,4.75
2019-04-13T17:25:05.629Z,4.65
2019-04-13T17:26:04.563Z,4.70
2019-04-13T17:27:05.185Z,4.61
2019-04-13T17:28:10.855Z,4.64
2019-04-13T17:29:04.454Z,4.76
2019-04-13T17:30:04.345Z,4.69
2019-04-13T17:31:05.499Z,4.67
2019-04-13T17:32:04.384Z,4.65
2019-04-13T17:33:04.398Z,4.64
2019-04-13T17:34:04.836Z,4.57
2019-04-13T17:35:04.224Z,4.58
2019-04-13T17:36:04.204Z,4.57
2019-04-13T17:37:05.241Z,4.55
2019-04-13T17:38:04.940Z,4.65
2019-04-13T17:39:04.378Z,4.65
2019-04-13T17:40:04.106Z,4.67
2019-04-13T17:41:04.083Z,4.73
2019-04-13T17:42:04.061Z,4.67
2019-04-13T17:43:04.133Z,4.57
2019-04-13T17:44:04.029Z,4.61
2019-04-13T17:45:04.751Z,4.65
2019-04-13T17:46:04.872Z,4.69
2019-04-13T17:47:03.986Z,4.65
2019-04-13T17:48:04.564Z,4.59
2019-04-13T17:49:04.980Z,4.67
2019-04-13T17:50:03.870Z,4.65
2019-04-13T17:51:03.929Z,4.64
2019-04-13T17:52:04.842Z,4.61
2019-04-13T17:53:03.800Z,4.51
2019-04-13T17:54:03.927Z,4.58
2019-04-13T17:55:04.817Z,4.52
2019-04-13T17:56:04.783Z,4.55
2019-04-13T17:57:03.700Z,4.54
2019-04-13T17:58:04.783Z,4.59
2019-04-13T17:59:04.850Z,4.50
2019-04-13T18:00:03.865Z,4.57
2019-04-13T18:01:03.604Z,4.52
2019-04-13T18:02:04.665Z,4.58
2019-04-13T18:03:03.566Z,4.54
2019-04-13T18:04:05.030Z,4.44
2019-04-13T18:05:04.435Z,4.50
2019-04-13T18:06:03.483Z,4.47
2019-04-13T18:07:03.472Z,4.50
2019-04-13T18:08:03.727Z,4.42
2019-04-13T18:09:03.608Z,4.44
2019-04-13T18:10:04.488Z,4.36
2019-04-13T18:11:03.368Z,4.36
2019-04-13T18:12:03.561Z,4.37
2019-04-13T18:13:04.153Z,4.34
2019-04-13T18:14:04.646Z,4.36
2019-04-13T18:15:03.409Z,4.37
2019-04-13T18:16:03.942Z,4.32
2019-04-13T18:17:03.238Z,4.26
2019-04-13T18:18:03.898Z,4.25
2019-04-13T18:19:03.176Z,4.19
2019-04-13T18:20:03.236Z,4.14
2019-04-13T18:21:03.596Z,4.22
2019-04-13T18:22:03.655Z,4.12
2019-04-13T18:23:03.087Z,4.21
2019-04-13T18:24:03.705Z,4.10
2019-04-13T18:25:03.475Z,4.10
2019-04-13T18:26:04.239Z,4.07
2019-04-13T18:27:03.188Z,4.16
2019-04-13T18:28:04.168Z,4.10
2019-04-13T18:29:03.205Z,4.18
2019-04-13T18:30:13.927Z,4.10
2019-04-13T18:31:04.183Z,4.08
2019-04-13T18:32:03.082Z,4.15
2019-04-13T18:33:03.191Z,4.19
2019-04-13T18:34:03.992Z,4.12
2019-04-13T18:35:02.879Z,4.10
2019-04-13T18:36:02.874Z,4.10
2019-04-13T18:37:03.619Z,4.16
2019-04-13T18:38:03.897Z,4.04
2019-04-13T18:39:02.785Z,4.03
2019-04-13T18:40:03.727Z,4.01
2019-04-13T18:41:03.783Z,4.15
2019-04-13T18:42:03.481Z,4.15
2019-04-13T18:43:10.180Z,4.14
2019-04-13T18:44:02.925Z,4.14
2019-04-13T18:45:03.681Z,4.14
2019-04-13T18:46:03.667Z,4.15
2019-04-13T18:47:03.571Z,4.12
2019-04-13T18:48:02.496Z,4.08
2019-04-13T18:49:03.245Z,4.12
2019-04-13T18:50:02.434Z,4.15
2019-04-13T18:51:02.421Z,4.12
2019-04-13T18:52:02.911Z,4.12
2019-04-13T18:53:05.320Z,4.10
2019-04-13T18:54:03.109Z,4.12
2019-04-13T18:55:02.317Z,4.10
2019-04-13T18:56:02.581Z,4.14
2019-04-13T18:57:02.583Z,4.15
2019-04-13T18:58:03.289Z,4.16
2019-04-13T18:59:02.355Z,4.19
2019-04-13T19:00:03.118Z,4.12
2019-04-13T19:01:02.173Z,4.04
2019-04-13T19:02:02.150Z,4.03
2019-04-13T19:03:02.906Z,4.07
2019-04-13T19:04:02.099Z,4.04
2019-04-13T19:05:02.090Z,3.98
2019-04-13T19:06:02.051Z,4.06
2019-04-13T19:07:02.025Z,4.04
2019-04-13T19:08:02.000Z,3.94
2019-04-13T19:09:01.978Z,3.97
2019-04-13T19:10:01.979Z,3.96
2019-04-13T19:11:01.930Z,3.89
2019-04-13T19:12:01.911Z,3.90
2019-04-13T19:13:04.207Z,3.76
2019-04-13T19:14:01.865Z,3.82
2019-04-13T19:15:01.844Z,3.85
2019-04-13T19:16:01.824Z,3.83
2019-04-13T19:17:01.808Z,3.78
2019-04-13T19:18:01.763Z,3.76
2019-04-13T19:19:01.763Z,3.78
2019-04-13T19:20:01.713Z,3.75
2019-04-13T19:21:01.704Z,3.75
2019-04-13T19:22:01.665Z,3.67
2019-04-13T19:23:01.659Z,3.65
2019-04-13T19:24:01.624Z,3.60
2019-04-13T19:25:01.591Z,3.44
2019-04-13T19:26:01.569Z,3.47
2019-04-13T19:27:01.553Z,3.34
2019-04-13T19:28:01.529Z,3.34
2019-04-13T19:29:01.499Z,3.31
2019-04-13T19:30:01.481Z,3.24
2019-04-13T19:31:01.455Z,3.16
2019-04-13T19:32:01.451Z,3.10
2019-04-13T19:33:01.463Z,3.15
2019-04-13T19:34:01.373Z,3.05
2019-04-13T19:35:01.350Z,2.95
2019-04-13T19:36:01.332Z,2.92
2019-04-13T19:37:01.303Z,2.88
2019-04-13T19:38:01.281Z,2.77
2019-04-13T19:39:01.251Z,2.76
2019-04-13T19:40:01.230Z,2.63
2019-04-13T19:41:01.229Z,2.61
2019-04-13T19:42:01.178Z,2.49
2019-04-13T19:43:01.159Z,2.41
2019-04-13T19:44:01.131Z,2.44
2019-04-13T19:45:01.107Z,2.38
2019-04-13T19:46:01.083Z,2.34
2019-04-13T19:47:01.064Z,2.26
2019-04-13T19:48:01.038Z,2.27
2019-04-13T19:49:01.006Z,2.23
2019-04-13T19:50:00.990Z,2.27
2019-04-13T19:51:00.960Z,2.20
2019-04-13T19:52:00.949Z,2.16
2019-04-13T19:53:00.913Z,2.22
2019-04-13T19:54:00.941Z,2.16
2019-04-13T19:55:00.865Z,2.23
2019-04-13T19:56:00.836Z,2.13
2019-04-13T19:57:00.814Z,2.17
2019-04-13T19:58:00.788Z,2.17
2019-04-13T19:59:00.766Z,2.17
2019-04-13T20:00:00.739Z,2.10
2019-04-13T20:01:01.510Z,2.15
2019-04-13T20:02:00.691Z,2.12
2019-04-13T20:03:00.666Z,2.12
2019-04-13T20:04:00.659Z,2.15
2019-04-13T20:05:00.620Z,2.15
2019-04-13T20:06:00.589Z,2.08
2019-04-13T20:07:00.563Z,2.15
2019-04-13T20:08:00.543Z,2.10
2019-04-13T20:09:00.519Z,2.10
2019-04-13T20:10:00.489Z,2.06
2019-04-13T20:11:00.471Z,2.12
2019-04-13T20:12:00.441Z,2.08
2019-04-13T20:13:00.419Z,2.12
2019-04-13T20:14:06.995Z,2.02
2019-04-13T20:15:01.178Z,2.04
2019-04-13T20:16:01.522Z,2.08
2019-04-13T20:17:00.376Z,2.06
2019-04-13T20:18:00.313Z,2.08
2019-04-13T20:19:00.284Z,1.98
2019-04-13T20:20:01.677Z,2.08
2019-04-13T20:21:00.243Z,2.09
2019-04-13T20:22:00.206Z,2.04
2019-04-13T20:23:00.176Z,2.08
2019-04-13T20:24:00.150Z,2.02
2019-04-13T20:25:00.776Z,2.01
2019-04-13T20:26:01.131Z,2.09
2019-04-13T20:27:00.118Z,2.10
2019-04-13T20:28:00.581Z,1.98
2019-04-13T20:29:00.037Z,2.06
2019-04-13T20:30:00.014Z,2.10
2019-04-13T20:31:01.011Z,2.06
2019-04-13T20:32:01.368Z,2.10
2019-04-13T20:33:00.200Z,2.12
2019-04-13T20:34:01.006Z,2.09
2019-04-13T20:34:59.909Z,2.13
2019-04-13T20:36:07.463Z,2.04
2019-04-13T20:36:59.835Z,2.04
2019-04-13T20:37:59.871Z,2.12
2019-04-13T20:39:00.587Z,2.13
2019-04-13T20:40:01.021Z,2.09
2019-04-13T20:40:59.752Z,2.13
2019-04-13T20:42:05.773Z,2.19
2019-04-13T20:42:59.709Z,2.08
2019-04-13T20:44:07.291Z,2.09
2019-04-13T20:45:00.376Z,2.12
2019-04-13T20:45:59.627Z,2.10
2019-04-13T20:47:00.197Z,2.06
2019-04-13T20:48:00.811Z,2.02
2019-04-13T20:48:59.840Z,2.06
2019-04-13T20:50:00.367Z,2.01
2019-04-13T20:50:59.483Z,2.13
2019-04-13T20:51:59.469Z,2.08
2019-04-13T20:52:59.441Z,2.06
2019-04-13T20:53:59.439Z,2.09
2019-04-13T20:55:00.260Z,2.13
2019-04-13T20:55:59.364Z,2.06
2019-04-13T20:56:59.920Z,2.04
2019-04-13T20:57:59.317Z,2.02
2019-04-13T20:58:59.759Z,2.09
2019-04-13T20:59:59.256Z,2.02
2019-04-13T21:00:59.480Z,2.08
2019-04-13T21:02:00.205Z,1.98
2019-04-13T21:02:59.202Z,1.94
2019-04-13T21:03:59.822Z,1.97
2019-04-13T21:04:59.138Z,1.91
2019-04-13T21:06:00.099Z,2.09
2019-04-13T21:06:59.087Z,2.01
2019-04-13T21:07:59.738Z,1.94
2019-04-13T21:08:59.326Z,2.04
2019-04-13T21:09:59.014Z,1.90
2019-04-13T21:10:58.999Z,1.94
2019-04-13T21:11:59.217Z,1.90
2019-04-13T21:12:58.942Z,1.94
2019-04-13T21:14:07.289Z,1.99
2019-04-13T21:14:59.048Z,1.93
2019-04-13T21:15:59.649Z,1.91
2019-04-13T21:16:58.839Z,2.04
2019-04-13T21:17:59.269Z,1.99
2019-04-13T21:18:58.830Z,2.09
2019-04-13T21:19:59.007Z,2.04
2019-04-13T21:20:59.862Z,2.02
2019-04-13T21:21:58.753Z,2.08
2019-04-13T21:22:59.568Z,2.06
2019-04-13T21:23:58.700Z,2.10
2019-04-13T21:24:59.103Z,2.09
2019-04-13T21:25:59.767Z,2.08
2019-04-13T21:26:58.909Z,2.02
2019-04-13T21:27:59.539Z,2.06
2019-04-13T21:28:58.549Z,2.10
2019-04-13T21:29:58.949Z,2.12
2019-04-13T21:30:58.501Z,2.19
2019-04-13T21:31:58.698Z,2.17
2019-04-13T21:32:59.625Z,2.15
2019-04-13T21:33:58.430Z,2.20
2019-04-13T21:34:59.347Z,2.23
2019-04-13T21:35:58.377Z,2.17
2019-04-13T21:36:58.848Z,2.19
2019-04-13T21:37:59.403Z,2.16
2019-04-13T21:38:58.461Z,2.13
2019-04-13T21:39:59.120Z,2.17
2019-04-13T21:40:58.253Z,2.17
2019-04-13T21:41:58.492Z,2.16
2019-04-13T21:42:58.199Z,2.19
2019-04-13T21:44:10.038Z,2.16
2019-04-13T21:44:59.182Z,2.15
2019-04-13T21:45:58.126Z,2.16
2019-04-13T21:46:58.840Z,2.08
2019-04-13T21:47:58.127Z,2.08
2019-04-13T21:48:58.975Z,2.09
2019-04-13T21:49:58.098Z,2.08
2019-04-13T21:50:58.807Z,2.10
2019-04-13T21:51:57.987Z,2.10
2019-04-13T21:52:58.514Z,2.08
2019-04-13T21:53:57.926Z,2.09
2019-04-13T21:54:58.236Z,2.02
2019-04-13T21:55:57.904Z,2.02
2019-04-13T21:56:58.146Z,2.06
2019-04-13T21:57:58.974Z,2.08
2019-04-13T21:58:57.808Z,2.06
2019-04-13T21:59:58.723Z,2.06
2019-04-13T22:00:57.757Z,2.06
2019-04-13T22:01:58.525Z,2.06
2019-04-13T22:02:59.770Z,2.01
2019-04-13T22:03:57.996Z,2.04
2019-04-13T22:04:58.723Z,2.04
2019-04-13T22:05:57.663Z,2.04
2019-04-13T22:06:58.346Z,2.04
2019-04-13T22:07:57.583Z,2.04
2019-04-13T22:08:57.756Z,2.06
2019-04-13T22:09:58.618Z,2.08
2019-04-13T22:10:57.509Z,2.09
2019-04-13T22:11:58.326Z,2.08
2019-04-13T22:12:57.460Z,2.06
2019-04-13T22:13:57.787Z,2.10
2019-04-13T22:15:02.684Z,2.04
2019-04-13T22:15:57.396Z,2.04
2019-04-13T22:16:58.556Z,2.04
2019-04-13T22:17:57.582Z,2.02
2019-04-13T22:18:58.291Z,2.04
2019-04-13T22:19:57.347Z,2.08
2019-04-13T22:20:57.982Z,2.09
2019-04-13T22:21:57.249Z,2.08
2019-04-13T22:22:57.570Z,2.01
2019-04-13T22:23:58.455Z,2.04
2019-04-13T22:24:57.170Z,1.98
2019-04-13T22:25:58.143Z,2.04
2019-04-13T22:26:57.121Z,2.10
2019-04-13T22:28:03.011Z,2.12
2019-04-13T22:28:58.280Z,2.09
2019-04-13T22:29:57.506Z,2.13
2019-04-13T22:30:58.038Z,2.10
2019-04-13T22:31:57.079Z,2.12
2019-04-13T22:32:57.987Z,2.22
2019-04-13T22:33:56.939Z,2.23
2019-04-13T22:34:58.705Z,2.20
2019-04-13T22:35:56.891Z,2.19
2019-04-13T22:36:57.094Z,2.22
2019-04-13T22:37:57.766Z,2.22
2019-04-13T22:38:56.831Z,2.33
2019-04-13T22:39:57.601Z,2.20
2019-04-13T22:40:56.769Z,2.30
2019-04-13T22:41:57.083Z,2.33
2019-04-13T22:42:58.044Z,2.35
2019-04-13T22:43:56.797Z,2.38
2019-04-13T22:45:02.603Z,2.49
2019-04-13T22:45:57.740Z,2.56
2019-04-13T22:46:57.109Z,2.55
2019-04-13T22:47:56.601Z,2.58
2019-04-13T22:48:57.878Z,2.61
2019-04-13T22:49:56.550Z,2.71
2019-04-13T22:50:56.832Z,2.76
2019-04-13T22:51:57.550Z,2.70
2019-04-13T22:52:56.478Z,2.71
2019-04-13T22:53:57.196Z,2.77
2019-04-13T22:54:56.424Z,2.74
2019-04-13T22:55:56.412Z,2.82
2019-04-13T22:56:57.398Z,2.82
2019-04-13T22:57:56.585Z,2.77
2019-04-13T22:58:56.326Z,2.79
2019-04-13T22:59:57.510Z,2.88
2019-04-13T23:00:56.323Z,2.81
2019-04-13T23:01:57.143Z,2.79
2019-04-13T23:02:56.299Z,2.88
2019-04-13T23:03:57.224Z,2.82
2019-04-13T23:04:56.175Z,2.87
2019-04-13T23:05:56.714Z,2.88
2019-04-13T23:06:56.130Z,2.88
2019-04-13T23:07:56.750Z,2.89
2019-04-13T23:08:57.405Z,2.84
2019-04-13T23:09:56.339Z,2.87
2019-04-13T23:10:57.202Z,2.84
2019-04-13T23:11:56.312Z,2.92
2019-04-13T23:12:57.087Z,2.85
2019-04-13T23:13:56.105Z,2.91
2019-04-13T23:15:04.412Z,2.94
2019-04-13T23:15:55.912Z,2.95
2019-04-13T23:16:56.227Z,2.89
2019-04-13T23:17:55.876Z,2.91
2019-04-13T23:18:55.891Z,2.88
2019-04-13T23:19:56.706Z,2.92
2019-04-13T23:20:56.111Z,3.03
2019-04-13T23:21:55.765Z,2.97
2019-04-13T23:22:56.314Z,3.02
2019-04-13T23:23:55.735Z,2.97
2019-04-13T23:24:56.045Z,3.00
2019-04-13T23:25:55.671Z,2.94
2019-04-13T23:26:55.908Z,2.87
2019-04-13T23:27:56.733Z,2.87
2019-04-13T23:28:55.620Z,2.95
2019-04-13T23:29:56.493Z,2.89
2019-04-13T23:30:55.545Z,2.91
2019-04-13T23:31:56.452Z,2.87
2019-04-13T23:32:55.554Z,2.91
2019-04-13T23:33:56.312Z,2.88
2019-04-13T23:34:58.500Z,2.85
2019-04-13T23:35:56.268Z,2.77
2019-04-13T23:36:55.395Z,2.82
2019-04-13T23:37:56.327Z,2.79
2019-04-13T23:38:55.351Z,2.82
2019-04-13T23:39:56.279Z,2.81
2019-04-13T23:40:55.296Z,2.82
2019-04-13T23:41:56.143Z,2.82
2019-04-13T23:42:55.264Z,2.84
2019-04-13T23:43:56.209Z,2.84
2019-04-13T23:45:08.333Z,2.82
2019-04-13T23:45:56.013Z,2.81
2019-04-13T23:46:55.149Z,2.84
2019-04-13T23:47:56.007Z,2.87
2019-04-13T23:48:55.125Z,2.82
2019-04-13T23:49:57.295Z,2.77
2019-04-13T23:50:55.051Z,2.73
2019-04-13T23:51:55.794Z,2.74
2019-04-13T23:52:55.002Z,2.84
2019-04-13T23:53:55.622Z,2.84
2019-04-13T23:54:54.953Z,2.79
2019-04-13T23:55:55.415Z,2.79
2019-04-13T23:56:54.908Z,2.87
2019-04-13T23:57:55.439Z,2.79
2019-04-13T23:58:55.899Z,2.81
2019-04-13T23:59:54.830Z,2.88
